createdAt,value
2023-02-27T00:01:13.137Z,5.78
2023-02-27T00:04:29.328Z,5.43
2023-02-27T00:07:33.363Z,8.25
2023-02-27T00:10:36.452Z,5.70
2023-02-27T00:13:52.326Z,5.80
2023-02-27T00:17:18.166Z,7.45
2023-02-27T00:20:44.845Z,7.35
2023-02-27T00:24:02.080Z,5.53
2023-02-27T00:27:29.055Z,7.03
2023-02-27T00:30:52.997Z,7.80
2023-02-27T00:34:11.049Z,6.80
2023-02-27T00:37:36.953Z,8.30
2023-02-27T00:40:55.306Z,7.68
2023-02-27T00:44:11.077Z,6.23
2023-02-27T00:47:43.190Z,7.43
2023-02-27T00:51:04.044Z,7.15
2023-02-27T00:54:28.889Z,7.72
2023-02-27T00:57:49.832Z,5.05
2023-02-27T01:01:08.156Z,6.67
2023-02-27T01:04:29.015Z,5.57
2023-02-27T01:07:42.821Z,7.25
2023-02-27T01:10:47.330Z,6.65
2023-02-27T01:13:51.971Z,5.45
2023-02-27T01:17:08.179Z,7.40
2023-02-27T01:20:24.222Z,6.27
2023-02-27T01:23:30.493Z,6.60
2023-02-27T01:26:37.509Z,6.10
2023-02-27T01:29:52.046Z,7.10
2023-02-27T01:33:15.890Z,6.27
2023-02-27T01:36:36.947Z,6.57
2023-02-27T01:39:52.999Z,6.20
2023-02-27T01:43:15.115Z,9.05
2023-02-27T01:46:38.904Z,6.80
2023-02-27T01:50:00.099Z,7.07
2023-02-27T01:53:19.882Z,8.27
2023-02-27T01:56:44.862Z,6.70
2023-02-27T02:00:09.420Z,6.90
2023-02-27T02:03:35.867Z,6.68
2023-02-27T02:06:54.080Z,5.43
2023-02-27T02:10:00.382Z,5.90
2023-02-27T02:13:11.239Z,6.55
2023-02-27T02:17:00.575Z,6.97
2023-02-27T02:20:50.105Z,6.55
2023-02-27T02:24:30.669Z,5.30
2023-02-27T02:28:20.631Z,7.63
2023-02-27T02:32:04.705Z,6.18
2023-02-27T02:35:27.137Z,6.28
2023-02-27T02:38:56.184Z,7.63
2023-02-27T02:42:09.791Z,5.87
2023-02-27T02:45:21.300Z,8.47
2023-02-27T02:48:36.642Z,6.70
2023-02-27T02:52:17.297Z,5.60
2023-02-27T02:55:38.189Z,6.90
2023-02-27T02:59:15.807Z,8.23
2023-02-27T03:02:33.274Z,6.23
2023-02-27T03:05:52.600Z,6.00
2023-02-27T03:09:13.164Z,6.43
2023-02-27T03:12:31.782Z,5.90
2023-02-27T03:15:48.245Z,5.70
2023-02-27T03:19:21.376Z,5.30
2023-02-27T03:22:44.877Z,5.68
2023-02-27T03:26:15.612Z,5.07
2023-02-27T03:29:53.285Z,4.88
2023-02-27T03:33:15.327Z,5.77
2023-02-27T03:36:32.678Z,6.27
2023-02-27T03:39:55.282Z,5.28
2023-02-27T03:43:31.468Z,5.25
2023-02-27T03:47:07.565Z,5.35
2023-02-27T03:50:35.595Z,5.50
2023-02-27T03:53:59.603Z,4.90
2023-02-27T03:57:15.720Z,5.47
2023-02-27T04:00:36.587Z,4.40
2023-02-27T04:04:03.795Z,3.65
2023-02-27T04:07:46.620Z,5.50
2023-02-27T04:11:35.249Z,4.87
2023-02-27T04:15:06.315Z,5.75
2023-02-27T04:18:31.252Z,6.32
2023-02-27T04:22:13.438Z,4.88
2023-02-27T04:25:53.891Z,4.97
2023-02-27T04:29:08.130Z,4.43
2023-02-27T04:32:26.412Z,5.78
2023-02-27T04:35:41.704Z,5.70
2023-02-27T04:39:10.828Z,4.93
2023-02-27T04:42:21.533Z,4.67
2023-02-27T04:45:30.753Z,5.63
2023-02-27T04:49:19.568Z,5.55
2023-02-27T04:52:40.415Z,4.82
2023-02-27T04:55:54.839Z,4.63
2023-02-27T04:59:09.452Z,6.23
2023-02-27T05:02:25.276Z,6.10
2023-02-27T05:05:39.261Z,5.38
2023-02-27T05:09:13.252Z,4.70
2023-02-27T05:12:37.261Z,7.68
2023-02-27T05:16:03.210Z,6.60
2023-02-27T05:19:14.454Z,7.87
2023-02-27T05:22:48.025Z,5.22
2023-02-27T05:26:15.795Z,4.03
2023-02-27T05:29:47.075Z,4.63
2023-02-27T05:32:59.729Z,5.90
2023-02-27T05:36:11.814Z,4.57
2023-02-27T05:39:26.501Z,5.72
2023-02-27T05:42:46.233Z,5.65
2023-02-27T05:46:12.610Z,6.32
2023-02-27T05:50:00.659Z,5.20
2023-02-27T05:53:11.705Z,5.17
2023-02-27T05:56:19.510Z,4.25
2023-02-27T05:59:39.341Z,4.85
2023-02-27T06:02:58.305Z,7.65
2023-02-27T06:06:17.720Z,8.17
2023-02-27T06:09:34.304Z,5.37
2023-02-27T06:12:49.263Z,5.72
2023-02-27T06:15:54.610Z,5.55
2023-02-27T06:19:04.845Z,4.38
2023-02-27T06:22:14.865Z,5.83
2023-02-27T06:25:31.540Z,3.83
2023-02-27T06:28:42.554Z,4.60
2023-02-27T06:31:52.660Z,4.60
2023-02-27T06:34:59.718Z,5.53
2023-02-27T06:38:05.602Z,6.93
2023-02-27T06:41:09.342Z,5.90
2023-02-27T06:44:12.194Z,5.40
2023-02-27T06:47:35.903Z,6.35
2023-02-27T06:50:52.558Z,4.10
2023-02-27T06:54:10.031Z,4.70
2023-02-27T06:57:31.880Z,6.93
2023-02-27T07:00:43.852Z,5.03
2023-02-27T07:03:47.878Z,5.60
2023-02-27T07:07:36.133Z,4.35
2023-02-27T07:10:16.983Z,5.93
2023-02-27T07:13:23.750Z,3.47
2023-02-27T07:16:29.421Z,6.38
2023-02-27T07:19:57.546Z,4.53
2023-02-27T07:23:00.406Z,4.43
2023-02-27T07:26:13.878Z,4.93
2023-02-27T07:29:35.170Z,3.27
2023-02-27T07:32:56.965Z,3.25
2023-02-27T07:36:22.425Z,3.75
2023-02-27T07:39:43.920Z,4.78
2023-02-27T07:43:01.965Z,4.10
2023-02-27T07:46:08.934Z,6.30
2023-02-27T07:49:17.730Z,4.43
2023-02-27T07:57:44.812Z,5.63
2023-02-27T08:01:27.912Z,5.03
2023-02-27T08:04:31.332Z,5.93
2023-02-27T08:07:55.052Z,5.93
2023-02-27T08:11:28.393Z,4.93
2023-02-27T08:14:50.033Z,7.03
2023-02-27T08:17:55.213Z,4.03
2023-02-27T08:21:14.746Z,5.30
2023-02-27T08:24:24.437Z,3.92
2023-02-27T08:27:28.072Z,5.72
2023-02-27T08:30:39.430Z,5.45
2023-02-27T08:33:58.096Z,5.10
2023-02-27T08:37:24.649Z,5.17
2023-02-27T08:40:40.349Z,5.55
2023-02-27T08:43:59.637Z,6.57
2023-02-27T08:47:52.068Z,4.88
2023-02-27T08:51:19.364Z,5.03
2023-02-27T08:54:40.887Z,6.30
2023-02-27T08:57:56.351Z,5.63
2023-02-27T09:00:59.938Z,5.82
2023-02-27T09:04:11.906Z,4.25
2023-02-27T09:07:40.159Z,3.60
2023-02-27T09:10:50.665Z,18.93
2023-02-27T09:13:54.815Z,6.90
2023-02-27T09:17:13.914Z,5.85
2023-02-27T09:20:19.718Z,4.90
2023-02-27T09:23:30.471Z,4.47
2023-02-27T09:26:45.887Z,4.73
2023-02-27T09:29:59.919Z,5.72
2023-02-27T09:33:29.328Z,6.25
2023-02-27T09:36:43.654Z,4.40
2023-02-27T09:40:17.893Z,6.10
2023-02-27T09:45:06.210Z,4.93
2023-02-27T09:48:50.534Z,4.20
2023-02-27T09:52:30.803Z,4.35
2023-02-27T09:56:22.040Z,5.82
2023-02-27T10:00:50.300Z,10.17
2023-02-27T10:04:17.513Z,5.03
2023-02-27T10:08:22.226Z,4.90
2023-02-27T10:11:37.031Z,8.52
2023-02-27T10:14:55.844Z,4.75
2023-02-27T10:18:26.014Z,4.33
2023-02-27T10:21:42.636Z,6.17
2023-02-27T10:25:30.734Z,7.70
2023-02-27T10:29:30.823Z,6.82
2023-02-27T10:32:36.410Z,7.15
2023-02-27T10:35:46.729Z,5.77
2023-02-27T10:39:06.497Z,5.33
2023-02-27T10:42:31.246Z,6.97
2023-02-27T10:46:08.818Z,5.18
2023-02-27T10:49:46.775Z,5.15
2023-02-27T10:53:21.913Z,5.30
2023-02-27T10:57:14.140Z,7.03
2023-02-27T11:00:45.344Z,6.72
2023-02-27T11:03:57.069Z,11.77
2023-02-27T11:07:34.084Z,5.50
2023-02-27T11:11:10.382Z,5.17
2023-02-27T11:14:37.307Z,5.20
2023-02-27T11:17:47.680Z,7.57
2023-02-27T11:21:29.540Z,5.75
2023-02-27T11:24:40.610Z,5.70
2023-02-27T11:28:22.944Z,5.50
2023-02-27T11:31:33.020Z,5.20
2023-02-27T11:34:53.635Z,7.68
2023-02-27T11:38:23.407Z,6.50
2023-02-27T11:41:45.022Z,6.57
2023-02-27T11:45:00.402Z,7.17
2023-02-27T11:48:12.696Z,6.23
2023-02-27T11:51:56.536Z,4.82
2023-02-27T11:55:20.010Z,6.65
2023-02-27T11:58:28.552Z,6.13
2023-02-27T12:01:55.391Z,6.47
2023-02-27T12:05:18.394Z,5.47
2023-02-27T12:08:44.413Z,8.32
2023-02-27T12:12:31.024Z,7.22
2023-02-27T12:16:26.705Z,5.25
2023-02-27T12:19:58.252Z,6.73
2023-02-27T12:24:13.589Z,7.13
2023-02-27T12:27:43.385Z,7.05
2023-02-27T12:32:05.516Z,5.60
2023-02-27T12:35:36.554Z,7.80
2023-02-27T12:39:24.890Z,8.03
2023-02-27T12:42:54.106Z,5.50
2023-02-27T12:46:32.354Z,8.43
2023-02-27T12:49:50.154Z,8.25
2023-02-27T12:53:29.284Z,9.02
2023-02-27T12:57:04.243Z,6.93
2023-02-27T13:00:45.272Z,7.33
2023-02-27T13:04:49.965Z,6.18
2023-02-27T13:08:21.575Z,7.97
2023-02-27T13:11:47.368Z,7.68
2023-02-27T13:15:24.330Z,10.13
2023-02-27T13:19:07.168Z,8.67
2023-02-27T13:22:27.571Z,7.30
2023-02-27T13:25:37.404Z,8.43
2023-02-27T13:28:54.292Z,6.95
2023-02-27T13:32:43.526Z,7.00
2023-02-27T13:36:32.009Z,9.10
2023-02-27T13:40:01.728Z,7.00
2023-02-27T13:43:52.242Z,8.07
2023-02-27T13:47:31.197Z,8.27
2023-02-27T13:50:46.688Z,7.33
2023-02-27T13:54:15.527Z,5.83
2023-02-27T13:57:32.408Z,7.40
2023-02-27T14:00:41.995Z,7.07
2023-02-27T14:03:58.534Z,9.23
2023-02-27T14:07:11.383Z,6.77
2023-02-27T14:10:34.229Z,7.87
2023-02-27T14:13:50.916Z,7.35
2023-02-27T14:21:53.131Z,9.55
2023-02-27T14:25:06.771Z,10.87
2023-02-27T14:28:55.868Z,9.37
2023-02-27T14:32:07.212Z,7.13
2023-02-27T14:35:31.057Z,9.73
2023-02-27T14:38:45.946Z,15.77
2023-02-27T14:41:59.992Z,8.27
2023-02-27T14:45:03.674Z,7.97
2023-02-27T14:48:16.179Z,6.07
2023-02-27T14:51:39.767Z,6.55
2023-02-27T14:55:46.957Z,7.72
2023-02-27T14:59:04.676Z,9.43
2023-02-27T15:02:33.915Z,9.63
2023-02-27T15:05:44.062Z,8.13
2023-02-27T15:08:53.984Z,8.25
2023-02-27T15:12:03.958Z,6.85
2023-02-27T15:15:23.761Z,7.33
2023-02-27T15:18:37.510Z,7.43
2023-02-27T15:21:53.502Z,8.50
2023-02-27T15:25:16.998Z,10.27
2023-02-27T15:28:43.359Z,8.57
2023-02-27T15:31:53.855Z,8.63
2023-02-27T15:35:01.235Z,8.70
2023-02-27T15:38:39.631Z,9.73
2023-02-27T15:42:10.696Z,9.45
2023-02-27T15:45:35.419Z,8.02
2023-02-27T15:48:45.338Z,9.43
2023-02-27T15:52:12.407Z,9.73
2023-02-27T15:56:06.293Z,61.90
2023-02-27T15:59:15.556Z,7.88
2023-02-27T16:02:35.037Z,8.65
2023-02-27T16:05:54.720Z,35.17
2023-02-27T16:09:22.712Z,9.87
2023-02-27T16:12:39.920Z,10.38
2023-02-27T16:16:03.740Z,12.77
2023-02-27T16:19:27.148Z,8.10
2023-02-27T16:22:41.859Z,10.30
2023-02-27T16:26:08.501Z,10.20
2023-02-27T16:29:27.701Z,12.07
2023-02-27T16:32:47.930Z,12.45
2023-02-27T16:36:19.618Z,12.15
2023-02-27T16:39:30.470Z,12.67
2023-02-27T16:42:40.757Z,11.53
2023-02-27T16:45:51.934Z,9.80
2023-02-27T16:49:17.704Z,12.40
2023-02-27T16:52:29.432Z,11.32
2023-02-27T16:55:40.523Z,11.30
2023-02-27T16:59:02.047Z,12.20
2023-02-27T17:02:19.781Z,11.43
2023-02-27T17:05:36.511Z,13.70
2023-02-27T17:08:59.523Z,14.98
2023-02-27T17:12:26.069Z,15.23
2023-02-27T17:15:42.644Z,15.87
2023-02-27T17:19:02.402Z,15.70
2023-02-27T17:22:36.014Z,20.50
2023-02-27T17:25:46.174Z,17.88
2023-02-27T17:29:05.917Z,18.27
2023-02-27T17:32:35.246Z,15.63
2023-02-27T17:36:09.250Z,14.75
2023-02-27T17:39:30.230Z,15.90
2023-02-27T17:42:47.213Z,15.70
2023-02-27T17:46:05.224Z,15.27
2023-02-27T17:49:31.133Z,17.70
2023-02-27T17:52:41.673Z,19.85
2023-02-27T17:55:52.164Z,16.50
2023-02-27T17:58:55.283Z,18.52
2023-02-27T18:02:01.755Z,14.57
2023-02-27T18:05:22.407Z,18.33
2023-02-27T18:08:31.947Z,18.05
2023-02-27T18:11:37.472Z,17.73
2023-02-27T18:14:53.193Z,18.83
2023-02-27T18:18:14.121Z,19.90
2023-02-27T18:21:36.210Z,24.23
2023-02-27T18:24:59.219Z,26.17
2023-02-27T18:28:28.185Z,17.77
2023-02-27T18:31:43.274Z,13.70
2023-02-27T18:35:06.753Z,10.87
2023-02-27T18:38:18.201Z,16.43
2023-02-27T18:41:44.273Z,16.73
2023-02-27T18:45:12.331Z,11.68
2023-02-27T18:48:22.640Z,12.35
2023-02-27T18:51:28.348Z,12.73
2023-02-27T18:54:32.073Z,12.07
2023-02-27T18:57:48.246Z,9.85
2023-02-27T19:01:15.173Z,10.43
2023-02-27T19:04:38.326Z,9.90
2023-02-27T19:07:58.782Z,9.70
2023-02-27T19:11:02.001Z,10.83
2023-02-27T19:14:12.476Z,12.18
2023-02-27T19:17:15.543Z,14.45
2023-02-27T19:20:36.100Z,12.05
2023-02-27T19:23:59.080Z,10.53
2023-02-27T19:27:21.083Z,10.93
2023-02-27T19:30:41.212Z,10.68
2023-02-27T19:34:01.053Z,9.20
2023-02-27T19:37:21.098Z,13.25
2023-02-27T19:40:41.123Z,9.90
2023-02-27T19:43:55.354Z,9.83
2023-02-27T19:46:58.558Z,9.73
2023-02-27T19:50:02.220Z,9.25
2023-02-27T19:53:21.143Z,10.15
2023-02-27T19:56:41.019Z,10.40
2023-02-27T20:00:08.021Z,10.00
2023-02-27T20:03:28.836Z,15.63
2023-02-27T20:06:45.115Z,7.72
2023-02-27T20:10:05.017Z,10.48
2023-02-27T20:13:33.656Z,10.70
2023-02-27T20:16:56.004Z,11.93
2023-02-27T20:20:19.833Z,9.77
2023-02-27T20:23:42.845Z,9.70
2023-02-27T20:26:53.592Z,10.18
2023-02-27T20:30:02.564Z,10.73
2023-02-27T20:33:07.792Z,12.13
2023-02-27T20:36:24.119Z,11.05
2023-02-27T20:39:39.953Z,10.27
2023-02-27T20:43:11.106Z,12.57
2023-02-27T20:46:40.894Z,10.40
2023-02-27T20:49:52.582Z,11.60
2023-02-27T20:52:55.801Z,11.82
2023-02-27T20:55:59.323Z,11.95
2023-02-27T20:59:13.097Z,10.82
2023-02-27T21:02:29.284Z,11.87
2023-02-27T21:05:51.946Z,15.40
2023-02-27T21:09:12.858Z,12.55
2023-02-27T21:12:36.895Z,14.10
2023-02-27T21:16:00.014Z,14.88
2023-02-27T21:19:24.866Z,14.13
2023-02-27T21:24:01.914Z,12.37
2023-02-27T21:27:11.810Z,13.43
2023-02-27T21:30:22.450Z,14.10
2023-02-27T21:33:25.680Z,11.98
2023-02-27T21:36:34.771Z,13.33
2023-02-27T21:39:41.182Z,12.87
2023-02-27T21:42:48.693Z,13.40
2023-02-27T21:46:05.355Z,13.18
2023-02-27T21:49:30.724Z,15.63
2023-02-27T21:52:55.825Z,12.63
2023-02-27T21:56:14.949Z,12.13
2023-02-27T21:59:20.348Z,15.38
2023-02-27T22:02:23.854Z,13.52
2023-02-27T22:05:27.231Z,14.55
2023-02-27T22:08:30.288Z,17.97
2023-02-27T22:11:41.177Z,17.43
2023-02-27T22:14:44.366Z,14.80
2023-02-27T22:17:52.346Z,14.27
2023-02-27T22:20:55.871Z,16.20
2023-02-27T22:24:50.792Z,17.43
2023-02-27T22:28:09.744Z,16.40
2023-02-27T22:31:21.811Z,19.75
2023-02-27T22:34:28.831Z,20.90
2023-02-27T22:37:32.888Z,19.95
2023-02-27T22:40:36.501Z,19.83
2023-02-27T22:43:50.121Z,20.60
2023-02-27T22:47:12.669Z,22.60
2023-02-27T22:50:25.269Z,22.10
2023-02-27T22:53:51.555Z,21.60
2023-02-27T22:57:07.916Z,22.93
2023-02-27T23:00:25.573Z,21.60
2023-02-27T23:03:57.011Z,22.20
2023-02-27T23:07:19.513Z,18.95
2023-02-27T23:10:57.498Z,24.08
2023-02-27T23:14:15.727Z,25.73
2023-02-27T23:17:26.115Z,23.60
2023-02-27T23:20:29.059Z,23.75
2023-02-27T23:23:35.860Z,23.52
2023-02-27T23:26:48.034Z,23.92
2023-02-27T23:29:58.889Z,26.37
2023-02-27T23:33:22.570Z,25.03
2023-02-27T23:36:42.758Z,24.00
2023-02-27T23:40:02.440Z,22.35
2023-02-27T23:43:31.496Z,24.23
2023-02-27T23:46:51.422Z,23.07
2023-02-27T23:50:07.622Z,21.87
2023-02-27T23:53:27.484Z,23.40
2023-02-27T23:56:52.398Z,20.85
